createdAt,value
2018-11-29T00:00:14.551Z,8.83
2018-11-29T00:01:14.542Z,8.86
2018-11-29T00:02:14.527Z,8.86
2018-11-29T00:03:14.519Z,8.76
2018-11-29T00:04:14.507Z,8.78
2018-11-29T00:05:14.498Z,8.79
2018-11-29T00:06:14.493Z,8.85
2018-11-29T00:07:14.481Z,8.82
2018-11-29T00:08:14.470Z,8.80
2018-11-29T00:09:14.461Z,8.83
2018-11-29T00:10:14.445Z,8.85
2018-11-29T00:11:14.439Z,8.83
2018-11-29T00:12:14.425Z,8.86
2018-11-29T00:13:14.414Z,8.85
2018-11-29T00:14:14.410Z,8.83
2018-11-29T00:15:14.400Z,8.91
2018-11-29T00:16:14.384Z,8.89
2018-11-29T00:17:14.374Z,8.86
2018-11-29T00:18:14.369Z,8.91
2018-11-29T00:19:14.359Z,8.85
2018-11-29T00:20:14.350Z,8.89
2018-11-29T00:21:14.337Z,8.88
2018-11-29T00:22:14.323Z,8.93
2018-11-29T00:23:14.312Z,8.86
2018-11-29T00:24:14.302Z,8.89
2018-11-29T00:25:14.291Z,8.86
2018-11-29T00:26:14.286Z,8.88
2018-11-29T00:27:14.276Z,8.88
2018-11-29T00:28:14.265Z,8.89
2018-11-29T00:29:14.256Z,8.96
2018-11-29T00:30:14.242Z,9.06
2018-11-29T00:31:14.230Z,8.98
2018-11-29T00:32:14.228Z,8.97
2018-11-29T00:33:14.215Z,9.03
2018-11-29T00:34:14.204Z,9.00
2018-11-29T00:35:14.190Z,8.97
2018-11-29T00:36:14.180Z,8.96
2018-11-29T00:37:14.173Z,8.98
2018-11-29T00:38:14.165Z,9.03
2018-11-29T00:39:14.154Z,8.97
2018-11-29T00:40:14.149Z,9.01
2018-11-29T00:41:14.139Z,9.00
2018-11-29T00:42:14.119Z,8.96
2018-11-29T00:43:14.112Z,9.08
2018-11-29T00:44:14.101Z,9.12
2018-11-29T00:45:14.088Z,9.03
2018-11-29T00:46:14.086Z,9.00
2018-11-29T00:47:14.075Z,8.98
2018-11-29T00:48:14.065Z,9.04
2018-11-29T00:49:14.051Z,9.03
2018-11-29T00:50:14.048Z,9.12
2018-11-29T00:51:14.035Z,9.12
2018-11-29T00:52:14.023Z,9.08
2018-11-29T00:53:14.013Z,9.15
2018-11-29T00:54:13.998Z,9.06
2018-11-29T00:55:13.988Z,9.08
2018-11-29T00:56:13.978Z,9.03
2018-11-29T00:57:13.968Z,9.04
2018-11-29T00:58:13.962Z,9.13
2018-11-29T00:59:13.953Z,9.13
2018-11-29T01:00:13.942Z,9.12
2018-11-29T01:01:13.934Z,9.15
2018-11-29T01:02:13.918Z,9.08
2018-11-29T01:03:13.909Z,9.12
2018-11-29T01:04:13.903Z,9.08
2018-11-29T01:05:13.893Z,9.16
2018-11-29T01:06:13.879Z,9.19
2018-11-29T01:07:13.868Z,9.08
2018-11-29T01:08:13.858Z,9.08
2018-11-29T01:09:13.847Z,9.17
2018-11-29T01:10:13.844Z,9.16
2018-11-29T01:11:13.832Z,9.15
2018-11-29T01:12:13.821Z,9.06
2018-11-29T01:13:13.814Z,9.16
2018-11-29T01:14:13.799Z,9.16
2018-11-29T01:15:13.787Z,9.23
2018-11-29T01:16:13.777Z,9.10
2018-11-29T01:17:13.767Z,9.12
2018-11-29T01:18:13.761Z,9.17
2018-11-29T01:19:13.752Z,9.15
2018-11-29T01:20:13.737Z,9.17
2018-11-29T01:21:13.728Z,9.17
2018-11-29T01:22:13.722Z,9.23
2018-11-29T01:23:13.712Z,9.23
2018-11-29T01:24:13.701Z,9.17
2018-11-29T01:25:13.692Z,9.16
2018-11-29T01:26:13.678Z,9.23
2018-11-29T01:27:13.669Z,9.20
2018-11-29T01:28:13.657Z,9.12
2018-11-29T01:29:13.648Z,9.23
2018-11-29T01:30:13.642Z,9.17
2018-11-29T01:31:13.633Z,9.31
2018-11-29T01:32:13.621Z,9.22
2018-11-29T01:33:13.612Z,9.30
2018-11-29T01:34:13.598Z,9.27
2018-11-29T01:35:13.588Z,9.27
2018-11-29T01:36:13.582Z,9.16
2018-11-29T01:37:13.571Z,9.20
2018-11-29T01:38:13.558Z,9.20
2018-11-29T01:39:13.548Z,9.19
2018-11-29T01:40:13.538Z,9.30
2018-11-29T01:41:13.528Z,9.31
2018-11-29T01:42:13.526Z,9.31
2018-11-29T01:43:13.517Z,9.30
2018-11-29T01:44:13.503Z,9.23
2018-11-29T01:45:13.493Z,9.27
2018-11-29T01:46:13.481Z,9.32
2018-11-29T01:47:13.469Z,9.27
2018-11-29T01:48:13.458Z,9.26
2018-11-29T01:49:13.450Z,9.27
2018-11-29T01:50:13.443Z,9.24
2018-11-29T01:51:13.433Z,9.16
2018-11-29T01:52:13.418Z,9.20
2018-11-29T01:53:13.409Z,9.24
2018-11-29T01:54:13.404Z,9.19
2018-11-29T01:55:13.393Z,9.20
2018-11-29T01:56:13.385Z,9.30
2018-11-29T01:57:13.374Z,9.27
2018-11-29T01:58:13.361Z,9.27
2018-11-29T01:59:13.351Z,9.32
2018-11-29T02:00:13.340Z,9.26
2018-11-29T02:01:13.331Z,9.32
2018-11-29T02:02:13.326Z,9.31
2018-11-29T02:03:13.318Z,9.27
2018-11-29T02:04:13.304Z,9.24
2018-11-29T02:05:13.296Z,9.30
2018-11-29T02:06:13.280Z,9.27
2018-11-29T02:07:13.270Z,9.32
2018-11-29T02:08:13.266Z,9.30
2018-11-29T02:09:13.255Z,9.23
2018-11-29T02:10:13.241Z,9.31
2018-11-29T02:11:13.231Z,9.30
2018-11-29T02:12:13.221Z,9.26
2018-11-29T02:13:13.211Z,9.27
2018-11-29T02:14:13.208Z,9.26
2018-11-29T02:15:13.199Z,9.27
2018-11-29T02:16:13.185Z,9.23
2018-11-29T02:17:13.175Z,9.23
2018-11-29T02:18:13.164Z,9.31
2018-11-29T02:19:13.156Z,9.30
2018-11-29T02:20:13.142Z,9.23
2018-11-29T02:21:13.132Z,9.27
2018-11-29T02:22:13.127Z,9.30
2018-11-29T02:23:13.117Z,9.30
2018-11-29T02:24:13.101Z,9.34
2018-11-29T02:25:13.094Z,9.30
2018-11-29T02:26:13.087Z,9.31
2018-11-29T02:27:13.077Z,9.27
2018-11-29T02:28:13.067Z,9.27
2018-11-29T02:29:13.058Z,9.30
2018-11-29T02:30:13.047Z,9.32
2018-11-29T02:31:13.033Z,9.27
2018-11-29T02:32:13.022Z,9.27
2018-11-29T02:33:13.012Z,9.26
2018-11-29T02:34:13.008Z,9.26
2018-11-29T02:35:13.001Z,9.27
2018-11-29T02:36:12.987Z,9.30
2018-11-29T02:37:12.978Z,9.30
2018-11-29T02:38:12.973Z,9.32
2018-11-29T02:39:12.953Z,9.30
2018-11-29T02:40:12.955Z,9.32
2018-11-29T02:41:12.945Z,9.27
2018-11-29T02:42:12.924Z,9.27
2018-11-29T02:43:12.914Z,9.31
2018-11-29T02:44:12.903Z,9.26
2018-11-29T02:45:12.893Z,9.30
2018-11-29T02:46:12.888Z,9.26
2018-11-29T02:47:12.879Z,9.30
2018-11-29T02:48:12.868Z,9.30
2018-11-29T02:49:12.931Z,9.30
2018-11-29T02:50:12.845Z,9.31
2018-11-29T02:51:12.836Z,9.31
2018-11-29T02:52:12.825Z,9.26
2018-11-29T02:53:12.814Z,9.31
2018-11-29T02:54:12.810Z,9.31
2018-11-29T02:55:12.800Z,9.32
2018-11-29T02:56:12.789Z,9.26
2018-11-29T02:57:12.777Z,9.31
2018-11-29T02:58:12.773Z,9.38
2018-11-29T02:59:12.762Z,9.32
2018-11-29T03:00:12.750Z,9.31
2018-11-29T03:01:12.744Z,9.30
2018-11-29T03:02:12.726Z,9.27
2018-11-29T03:03:12.717Z,9.27
2018-11-29T03:04:12.711Z,9.38
2018-11-29T03:05:12.703Z,9.31
2018-11-29T03:06:12.691Z,9.30
2018-11-29T03:07:12.681Z,9.31
2018-11-29T03:08:12.672Z,9.35
2018-11-29T03:09:12.663Z,9.38
2018-11-29T03:10:12.653Z,9.31
2018-11-29T03:11:12.640Z,9.23
2018-11-29T03:12:12.634Z,9.30
2018-11-29T03:13:12.623Z,9.32
2018-11-29T03:14:12.609Z,9.31
2018-11-29T03:15:12.608Z,9.27
2018-11-29T03:16:12.682Z,9.35
2018-11-29T03:17:12.579Z,9.31
2018-11-29T03:18:12.574Z,9.27
2018-11-29T03:19:12.565Z,9.23
2018-11-29T03:20:12.556Z,9.31
2018-11-29T03:21:12.545Z,9.31
2018-11-29T03:22:12.531Z,9.27
2018-11-29T03:23:12.521Z,9.26
2018-11-29T03:24:12.511Z,9.24
2018-11-29T03:25:12.502Z,9.32
2018-11-29T03:26:12.497Z,9.26
2018-11-29T03:27:12.487Z,9.26
2018-11-29T03:28:12.471Z,9.32
2018-11-29T03:29:12.462Z,9.35
2018-11-29T03:30:12.459Z,9.38
2018-11-29T03:31:12.448Z,9.38
2018-11-29T03:32:12.441Z,9.38
2018-11-29T03:33:12.437Z,9.40
2018-11-29T03:34:12.413Z,9.38
2018-11-29T03:35:12.408Z,9.44
2018-11-29T03:36:12.392Z,9.34
2018-11-29T03:37:12.382Z,9.40
2018-11-29T03:38:12.378Z,9.31
2018-11-29T03:39:12.417Z,9.38
2018-11-29T03:40:12.364Z,9.37
2018-11-29T03:41:12.348Z,9.34
2018-11-29T03:42:12.340Z,9.38
2018-11-29T03:43:12.324Z,9.40
2018-11-29T03:44:12.318Z,9.38
2018-11-29T03:45:12.312Z,9.41
2018-11-29T03:46:12.294Z,9.37
2018-11-29T03:47:12.287Z,9.38
2018-11-29T03:48:12.275Z,9.38
2018-11-29T03:49:12.264Z,9.40
2018-11-29T03:50:12.264Z,9.41
2018-11-29T03:51:12.249Z,9.45
2018-11-29T03:52:12.242Z,9.44
2018-11-29T03:53:12.228Z,9.41
2018-11-29T03:54:12.215Z,9.41
2018-11-29T03:55:12.206Z,9.49
2018-11-29T03:56:12.196Z,9.45
2018-11-29T03:57:12.186Z,9.50
2018-11-29T03:58:12.181Z,9.38
2018-11-29T03:59:12.173Z,9.45
2018-11-29T04:00:12.155Z,9.44
2018-11-29T04:01:12.146Z,9.52
2018-11-29T04:02:12.144Z,9.48
2018-11-29T04:03:12.132Z,9.45
2018-11-29T04:04:12.119Z,9.42
2018-11-29T04:05:12.110Z,9.53
2018-11-29T04:06:12.100Z,9.48
2018-11-29T04:07:12.086Z,9.60
2018-11-29T04:08:12.077Z,9.48
2018-11-29T04:09:12.066Z,9.55
2018-11-29T04:10:12.070Z,9.50
2018-11-29T04:11:12.052Z,9.49
2018-11-29T04:12:12.045Z,9.48
2018-11-29T04:13:12.033Z,9.50
2018-11-29T04:14:12.022Z,9.50
2018-11-29T04:15:12.010Z,9.48
2018-11-29T04:16:12.003Z,9.50
2018-11-29T04:17:11.993Z,9.55
2018-11-29T04:18:11.978Z,9.49
2018-11-29T04:19:11.969Z,9.62
2018-11-29T04:20:11.959Z,9.59
2018-11-29T04:21:11.955Z,9.49
2018-11-29T04:22:11.946Z,9.58
2018-11-29T04:23:11.941Z,9.59
2018-11-29T04:24:11.925Z,9.59
2018-11-29T04:25:11.919Z,9.60
2018-11-29T04:26:11.901Z,9.60
2018-11-29T04:27:11.892Z,9.62
2018-11-29T04:28:11.880Z,9.55
2018-11-29T04:29:11.870Z,9.60
2018-11-29T04:30:11.865Z,9.58
2018-11-29T04:31:11.856Z,9.62
2018-11-29T04:32:11.841Z,9.68
2018-11-29T04:33:11.831Z,9.68
2018-11-29T04:34:11.832Z,9.67
2018-11-29T04:35:11.818Z,9.62
2018-11-29T04:36:11.808Z,9.68
2018-11-29T04:37:11.798Z,9.63
2018-11-29T04:38:11.785Z,9.70
2018-11-29T04:39:11.774Z,9.65
2018-11-29T04:40:11.764Z,9.62
2018-11-29T04:41:11.755Z,9.68
2018-11-29T04:42:11.751Z,9.70
2018-11-29T04:43:11.740Z,9.62
2018-11-29T04:44:11.731Z,9.67
2018-11-29T04:45:11.719Z,9.73
2018-11-29T04:46:11.706Z,9.80
2018-11-29T04:47:11.697Z,9.73
2018-11-29T04:48:11.690Z,9.73
2018-11-29T04:49:11.680Z,9.74
2018-11-29T04:50:11.670Z,9.68
2018-11-29T04:51:11.657Z,9.67
2018-11-29T04:52:11.648Z,9.71
2018-11-29T04:53:11.638Z,9.63
2018-11-29T04:54:11.636Z,9.74
2018-11-29T04:55:11.625Z,9.71
2018-11-29T04:56:11.614Z,9.81
2018-11-29T04:57:11.604Z,9.74
2018-11-29T04:58:11.590Z,9.81
2018-11-29T04:59:11.580Z,9.73
2018-11-29T05:00:11.572Z,9.74
2018-11-29T05:01:11.560Z,9.73
2018-11-29T05:02:11.971Z,9.74
2018-11-29T05:03:11.547Z,9.73
2018-11-29T05:04:11.531Z,9.74
2018-11-29T05:05:11.522Z,9.71
2018-11-29T05:06:11.516Z,9.74
2018-11-29T05:07:11.508Z,9.74
2018-11-29T05:08:11.498Z,9.62
2018-11-29T05:09:11.488Z,9.73
2018-11-29T05:10:11.473Z,9.80
2018-11-29T05:11:11.465Z,9.68
2018-11-29T05:12:11.454Z,9.73
2018-11-29T05:13:11.444Z,9.78
2018-11-29T05:14:11.441Z,9.73
2018-11-29T05:15:11.439Z,9.70
2018-11-29T05:16:11.420Z,9.75
2018-11-29T05:17:11.411Z,9.71
2018-11-29T05:18:11.396Z,9.67
2018-11-29T05:19:11.387Z,9.78
2018-11-29T05:20:11.384Z,9.74
2018-11-29T05:21:11.371Z,9.67
2018-11-29T05:22:11.358Z,9.74
2018-11-29T05:23:11.349Z,9.71
2018-11-29T05:24:11.338Z,9.80
2018-11-29T05:25:11.330Z,9.68
2018-11-29T05:26:11.325Z,9.71
2018-11-29T05:27:11.316Z,9.73
2018-11-29T05:28:11.304Z,9.71
2018-11-29T05:29:11.295Z,9.71
2018-11-29T05:30:11.282Z,9.71
2018-11-29T05:31:11.272Z,9.73
2018-11-29T05:32:11.263Z,9.74
2018-11-29T05:33:11.252Z,9.71
2018-11-29T05:34:11.256Z,9.65
2018-11-29T05:35:11.242Z,9.58
2018-11-29T05:36:11.224Z,9.73
2018-11-29T05:37:11.214Z,9.70
2018-11-29T05:38:11.210Z,9.65
2018-11-29T05:39:11.200Z,9.68
2018-11-29T05:40:11.189Z,9.65
2018-11-29T05:41:11.181Z,9.70
2018-11-29T05:42:11.166Z,9.68
2018-11-29T05:43:11.156Z,9.56
2018-11-29T05:44:11.147Z,9.60
2018-11-29T05:45:11.137Z,9.55
2018-11-29T05:46:11.131Z,9.62
2018-11-29T05:47:11.123Z,9.70
2018-11-29T05:48:11.113Z,9.70
2018-11-29T05:49:11.104Z,9.65
2018-11-29T05:50:11.089Z,9.62
2018-11-29T05:51:11.082Z,9.65
2018-11-29T05:52:11.073Z,9.62
2018-11-29T05:53:11.064Z,9.68
2018-11-29T05:54:11.049Z,9.67
2018-11-29T05:55:11.047Z,9.68
2018-11-29T05:56:11.029Z,9.65
2018-11-29T05:57:11.023Z,9.65
2018-11-29T05:58:11.015Z,9.62
2018-11-29T05:59:11.008Z,9.68
2018-11-29T06:00:10.996Z,9.68
2018-11-29T06:01:10.986Z,9.63
2018-11-29T06:02:10.974Z,9.68
2018-11-29T06:03:10.964Z,9.68
2018-11-29T06:04:10.952Z,9.65
2018-11-29T06:05:10.942Z,9.60
2018-11-29T06:06:10.937Z,9.62
2018-11-29T06:07:10.929Z,9.65
2018-11-29T06:08:10.915Z,9.68
2018-11-29T06:09:10.905Z,9.68
2018-11-29T06:10:10.898Z,9.71
2018-11-29T06:11:10.890Z,9.67
2018-11-29T06:12:10.878Z,9.68
2018-11-29T06:13:10.869Z,9.71
2018-11-29T06:14:10.855Z,9.65
2018-11-29T06:15:10.846Z,9.63
2018-11-29T06:16:10.837Z,9.68
2018-11-29T06:17:10.826Z,9.65
2018-11-29T06:18:10.823Z,9.62
2018-11-29T06:19:10.810Z,9.62
2018-11-29T06:20:10.801Z,9.67
2018-11-29T06:21:10.793Z,9.70
2018-11-29T06:22:10.777Z,9.68
2018-11-29T06:23:10.768Z,9.60
2018-11-29T06:24:13.570Z,9.70
2018-11-29T06:25:10.754Z,9.70
2018-11-29T06:26:10.739Z,9.65
2018-11-29T06:27:10.730Z,9.63
2018-11-29T06:28:10.718Z,9.60
2018-11-29T06:29:10.709Z,9.58
2018-11-29T06:30:10.705Z,9.62
2018-11-29T06:31:10.694Z,9.62
2018-11-29T06:32:10.684Z,9.67
2018-11-29T06:33:10.676Z,9.67
2018-11-29T06:34:10.662Z,9.65
2018-11-29T06:35:10.651Z,9.58
2018-11-29T06:36:10.641Z,9.68
2018-11-29T06:37:10.633Z,9.56
2018-11-29T06:38:10.627Z,9.65
2018-11-29T06:39:10.619Z,9.62
2018-11-29T06:40:10.603Z,9.58
2018-11-29T06:41:10.593Z,9.67
2018-11-29T06:42:10.588Z,9.63
2018-11-29T06:43:10.580Z,9.62
2018-11-29T06:44:10.616Z,9.58
2018-11-29T06:45:10.559Z,9.62
2018-11-29T06:46:10.544Z,9.62
2018-11-29T06:47:10.538Z,9.56
2018-11-29T06:48:10.524Z,9.59
2018-11-29T06:49:10.515Z,9.58
2018-11-29T06:50:10.511Z,9.63
2018-11-29T06:51:10.502Z,9.56
2018-11-29T06:52:10.490Z,9.58
2018-11-29T06:53:10.482Z,9.68
2018-11-29T06:54:10.467Z,9.60
2018-11-29T06:55:10.458Z,9.59
2018-11-29T06:56:10.451Z,9.62
2018-11-29T06:57:10.442Z,9.62
2018-11-29T06:58:10.430Z,9.67
2018-11-29T06:59:10.420Z,9.60
2018-11-29T07:00:10.409Z,9.58
2018-11-29T07:01:10.399Z,9.58
2018-11-29T07:02:10.396Z,9.63
2018-11-29T07:03:10.387Z,9.56
2018-11-29T07:04:10.376Z,9.59
2018-11-29T07:05:10.366Z,9.58
2018-11-29T07:06:10.351Z,9.62
2018-11-29T07:07:10.343Z,9.59
2018-11-29T07:08:10.332Z,9.62
2018-11-29T07:09:10.323Z,9.60
2018-11-29T07:10:10.318Z,9.56
2018-11-29T07:11:10.308Z,9.56
2018-11-29T07:12:10.293Z,9.50
2018-11-29T07:13:10.285Z,9.58
2018-11-29T07:14:10.278Z,9.59
2018-11-29T07:15:10.269Z,9.58
2018-11-29T07:16:10.260Z,9.59
2018-11-29T07:17:10.251Z,9.58
2018-11-29T07:18:10.235Z,9.65
2018-11-29T07:19:14.915Z,9.55
2018-11-29T07:20:10.217Z,9.67
2018-11-29T07:21:10.207Z,9.63
2018-11-29T07:22:10.204Z,9.62
2018-11-29T07:23:10.193Z,9.65
2018-11-29T07:24:10.181Z,9.62
2018-11-29T07:25:10.172Z,9.62
2018-11-29T07:26:10.160Z,9.62
2018-11-29T07:27:10.150Z,9.74
2018-11-29T07:28:10.143Z,9.63
2018-11-29T07:29:10.138Z,9.71
2018-11-29T07:30:10.121Z,9.71
2018-11-29T07:31:10.112Z,9.68
2018-11-29T07:32:10.102Z,9.71
2018-11-29T07:33:10.094Z,9.63
2018-11-29T07:34:10.088Z,9.68
2018-11-29T07:35:10.078Z,9.70
2018-11-29T07:36:10.067Z,9.65
2018-11-29T07:37:10.057Z,9.71
2018-11-29T07:38:10.050Z,9.68
2018-11-29T07:39:10.034Z,9.78
2018-11-29T07:40:10.217Z,9.71
2018-11-29T07:41:10.016Z,9.71
2018-11-29T07:42:10.011Z,9.77
2018-11-29T07:43:10.001Z,9.81
2018-11-29T07:44:09.985Z,9.75
2018-11-29T07:45:09.977Z,9.80
2018-11-29T07:46:09.973Z,9.80
2018-11-29T07:47:09.963Z,9.71
2018-11-29T07:48:09.953Z,9.80
2018-11-29T07:49:09.945Z,9.75
2018-11-29T07:50:09.973Z,9.80
2018-11-29T07:51:09.920Z,9.75
2018-11-29T07:52:09.912Z,9.80
2018-11-29T07:53:09.901Z,9.70
2018-11-29T07:54:09.896Z,9.75
2018-11-29T07:55:09.887Z,9.71
2018-11-29T07:56:09.878Z,9.75
2018-11-29T07:57:09.868Z,9.73
2018-11-29T07:58:09.855Z,9.73
2018-11-29T07:59:09.845Z,9.74
2018-11-29T08:00:09.840Z,9.71
2018-11-29T08:01:09.830Z,9.70
2018-11-29T08:02:09.848Z,9.77
2018-11-29T08:03:09.807Z,9.74
2018-11-29T08:04:09.797Z,9.83
2018-11-29T08:05:09.788Z,9.74
2018-11-29T08:06:09.783Z,9.77
2018-11-29T08:07:09.781Z,9.74
2018-11-29T08:08:09.764Z,9.71
2018-11-29T08:09:09.755Z,9.77
2018-11-29T08:10:09.742Z,9.75
2018-11-29T08:11:09.734Z,9.78
2018-11-29T08:12:09.723Z,9.73
2018-11-29T08:13:09.715Z,9.78
2018-11-29T08:14:09.711Z,9.73
2018-11-29T08:15:09.703Z,9.78
2018-11-29T08:16:09.688Z,9.74
2018-11-29T08:17:09.677Z,9.78
2018-11-29T08:18:09.680Z,9.75
2018-11-29T08:19:09.664Z,9.74
2018-11-29T08:20:09.655Z,9.71
2018-11-29T08:21:09.645Z,9.78
2018-11-29T08:22:09.631Z,9.89
2018-11-29T08:23:09.623Z,9.88
2018-11-29T08:24:09.613Z,9.89
2018-11-29T08:25:09.603Z,9.92
2018-11-29T08:26:09.599Z,9.96
2018-11-29T08:27:09.590Z,10.02
2018-11-29T08:28:09.583Z,9.96
2018-11-29T08:29:09.572Z,9.91
2018-11-29T08:30:09.558Z,9.95
2018-11-29T08:31:09.549Z,10.04
2018-11-29T08:32:09.544Z,9.95
2018-11-29T08:33:09.534Z,9.96
2018-11-29T08:34:09.521Z,9.99
2018-11-29T08:35:09.512Z,9.98
2018-11-29T08:36:09.502Z,10.01
2018-11-29T08:37:09.494Z,10.01
2018-11-29T08:38:09.489Z,9.95
2018-11-29T08:39:09.482Z,9.88
2018-11-29T08:40:09.471Z,9.95
2018-11-29T08:41:09.463Z,9.91
2018-11-29T08:42:09.449Z,9.86
2018-11-29T08:43:09.442Z,9.95
2018-11-29T08:44:09.431Z,9.99
2018-11-29T08:45:09.422Z,10.06
2018-11-29T08:46:09.417Z,10.01
2018-11-29T08:47:09.408Z,10.01
2018-11-29T08:48:09.394Z,9.96
2018-11-29T08:49:09.387Z,10.07
2018-11-29T08:50:09.380Z,10.06
2018-11-29T08:51:09.372Z,10.04
2018-11-29T08:52:09.362Z,10.01
2018-11-29T08:53:09.354Z,9.96
2018-11-29T08:54:09.341Z,9.98
2018-11-29T08:55:09.332Z,10.11
2018-11-29T08:56:09.321Z,10.13
2018-11-29T08:57:09.313Z,10.07
2018-11-29T08:58:09.309Z,10.09
2018-11-29T08:59:09.300Z,10.07
2018-11-29T09:00:09.289Z,10.06
2018-11-29T09:01:09.281Z,10.09
2018-11-29T09:02:09.267Z,10.10
2018-11-29T09:03:09.258Z,10.09
2018-11-29T09:04:09.252Z,10.09
2018-11-29T09:05:09.244Z,10.07
2018-11-29T09:06:09.231Z,9.99
2018-11-29T09:07:09.222Z,10.07
2018-11-29T09:08:09.213Z,9.99
2018-11-29T09:09:09.204Z,10.02
2018-11-29T09:10:09.200Z,10.07
2018-11-29T09:11:09.191Z,10.04
2018-11-29T09:12:09.181Z,10.06
2018-11-29T09:13:09.178Z,10.07
2018-11-29T09:14:09.159Z,10.09
2018-11-29T09:15:09.149Z,10.13
2018-11-29T09:16:09.140Z,10.14
2018-11-29T09:17:10.341Z,10.11
2018-11-29T09:18:09.127Z,10.14
2018-11-29T09:19:09.118Z,10.14
2018-11-29T09:20:09.103Z,10.10
2018-11-29T09:21:09.094Z,10.09
2018-11-29T09:22:09.091Z,10.13
2018-11-29T09:23:09.081Z,10.13
2018-11-29T09:24:09.071Z,10.09
2018-11-29T09:25:09.063Z,10.14
2018-11-29T09:26:09.049Z,10.09
2018-11-29T09:27:09.043Z,10.24
2018-11-29T09:28:09.031Z,10.20
2018-11-29T09:29:09.022Z,10.20
2018-11-29T09:30:09.019Z,10.22
2018-11-29T09:31:09.010Z,10.13
2018-11-29T09:32:08.999Z,10.07
2018-11-29T09:33:08.990Z,10.09
2018-11-29T09:34:08.977Z,10.10
2018-11-29T09:35:08.968Z,10.11
2018-11-29T09:36:08.963Z,10.10
2018-11-29T09:37:08.955Z,10.16
2018-11-29T09:38:08.942Z,10.09
2018-11-29T09:39:08.933Z,10.07
2018-11-29T09:40:08.923Z,10.10
2018-11-29T09:41:08.914Z,10.14
2018-11-29T09:42:08.966Z,10.10
2018-11-29T09:43:08.901Z,10.07
2018-11-29T09:44:08.892Z,10.11
2018-11-29T09:45:08.882Z,10.07
2018-11-29T09:46:08.871Z,10.09
2018-11-29T09:47:08.861Z,10.09
2018-11-29T09:48:08.851Z,10.06
2018-11-29T09:49:08.843Z,10.06
2018-11-29T09:50:08.840Z,9.99
2018-11-29T09:51:08.831Z,9.98
2018-11-29T09:52:08.816Z,9.98
2018-11-29T09:53:08.808Z,9.96
2018-11-29T09:54:08.806Z,9.99
2018-11-29T09:55:08.795Z,9.99
2018-11-29T09:56:08.784Z,10.01
2018-11-29T09:57:08.777Z,9.99
2018-11-29T09:58:08.762Z,10.04
2018-11-29T09:59:08.754Z,9.95
2018-11-29T10:00:08.744Z,9.98
2018-11-29T10:01:08.735Z,9.98
2018-11-29T10:02:08.743Z,9.98
2018-11-29T10:03:08.721Z,10.04
2018-11-29T10:04:08.713Z,10.04
2018-11-29T10:05:08.707Z,9.96
2018-11-29T10:06:08.691Z,10.02
2018-11-29T10:07:08.681Z,10.10
2018-11-29T10:08:11.795Z,10.07
2018-11-29T10:09:08.668Z,10.06
2018-11-29T10:10:08.654Z,10.06
2018-11-29T10:11:08.645Z,10.11
2018-11-29T10:12:08.635Z,10.10
2018-11-29T10:13:08.626Z,10.13
2018-11-29T10:14:08.621Z,10.16
2018-11-29T10:15:08.613Z,10.10
2018-11-29T10:16:08.604Z,10.09
2018-11-29T10:17:08.594Z,10.06
2018-11-29T10:18:08.585Z,10.06
2018-11-29T10:19:08.572Z,10.13
2018-11-29T10:20:08.562Z,10.10
2018-11-29T10:21:08.555Z,10.09
2018-11-29T10:22:08.549Z,10.09
2018-11-29T10:23:08.543Z,10.07
2018-11-29T10:24:08.528Z,10.10
2018-11-29T10:25:08.517Z,10.16
2018-11-29T10:26:08.516Z,10.10
2018-11-29T10:27:08.510Z,10.10
2018-11-29T10:28:08.494Z,10.11
2018-11-29T10:29:08.488Z,10.06
2018-11-29T10:30:08.472Z,9.96
2018-11-29T10:31:08.464Z,10.10
2018-11-29T10:32:08.454Z,10.09
2018-11-29T10:33:08.446Z,9.96
2018-11-29T10:34:08.441Z,9.99
2018-11-29T10:35:08.431Z,10.01
2018-11-29T10:36:08.423Z,9.98
2018-11-29T10:37:08.414Z,9.98
2018-11-29T10:38:08.400Z,9.96
2018-11-29T10:39:08.391Z,9.91
2018-11-29T10:40:08.387Z,9.92
2018-11-29T10:41:08.378Z,9.95
2018-11-29T10:42:08.364Z,10.02
2018-11-29T10:43:08.354Z,9.98
2018-11-29T10:44:08.344Z,9.95
2018-11-29T10:45:08.335Z,9.92
2018-11-29T10:46:08.330Z,9.95
2018-11-29T10:47:08.321Z,9.98
2018-11-29T10:48:08.314Z,9.98
2018-11-29T10:49:08.303Z,9.98
2018-11-29T10:50:08.289Z,10.06
2018-11-29T10:51:08.286Z,9.98
2018-11-29T10:52:08.273Z,9.96
2018-11-29T10:53:08.261Z,9.99
2018-11-29T10:54:08.258Z,10.04
2018-11-29T10:55:08.251Z,10.07
2018-11-29T10:56:08.233Z,10.07
2018-11-29T10:57:08.224Z,9.96
2018-11-29T10:58:08.223Z,9.98
2018-11-29T10:59:08.211Z,9.95
2018-11-29T11:00:08.202Z,9.99
2018-11-29T11:01:08.195Z,9.95
2018-11-29T11:02:08.179Z,10.04
2018-11-29T11:03:08.169Z,10.10
2018-11-29T11:04:08.159Z,9.96
2018-11-29T11:05:08.151Z,10.02
2018-11-29T11:06:08.146Z,10.01
2018-11-29T11:07:08.141Z,9.92
2018-11-29T11:08:08.820Z,9.86
2018-11-29T11:09:08.118Z,9.86
2018-11-29T11:10:08.104Z,9.91
2018-11-29T11:11:08.094Z,9.89
2018-11-29T11:12:08.089Z,9.88
2018-11-29T11:13:08.079Z,9.85
2018-11-29T11:14:08.066Z,9.83
2018-11-29T11:15:08.057Z,9.80
2018-11-29T11:16:08.047Z,9.74
2018-11-29T11:17:08.039Z,9.78
2018-11-29T11:18:08.124Z,9.80
2018-11-29T11:19:08.025Z,9.74
2018-11-29T11:20:08.014Z,9.75
2018-11-29T11:21:08.006Z,9.71
2018-11-29T11:22:07.991Z,9.68
2018-11-29T11:23:07.985Z,9.71
2018-11-29T11:24:07.971Z,9.77
2018-11-29T11:25:07.962Z,9.68
2018-11-29T11:26:07.957Z,9.74
2018-11-29T11:27:07.947Z,9.68
2018-11-29T11:28:07.933Z,9.65
2018-11-29T11:29:07.926Z,9.70
2018-11-29T11:30:07.918Z,9.67
2018-11-29T11:31:07.909Z,9.70
2018-11-29T11:32:08.028Z,9.65
2018-11-29T11:33:07.891Z,9.68
2018-11-29T11:34:07.949Z,9.65
2018-11-29T11:35:07.866Z,9.59
2018-11-29T11:36:07.856Z,9.56
2018-11-29T11:37:07.846Z,9.62
2018-11-29T11:38:07.841Z,9.58
2018-11-29T11:39:07.833Z,9.49
2018-11-29T11:40:07.821Z,9.59
2018-11-29T11:41:07.812Z,9.49
2018-11-29T11:42:07.797Z,9.48
2018-11-29T11:43:07.848Z,9.50
2018-11-29T11:44:07.785Z,9.48
2018-11-29T11:45:07.776Z,9.49
2018-11-29T11:46:07.758Z,9.50
2018-11-29T11:47:07.749Z,9.52
2018-11-29T11:48:07.739Z,9.50
2018-11-29T11:49:07.730Z,9.44
2018-11-29T11:50:10.879Z,9.41
2018-11-29T11:51:07.714Z,9.37
2018-11-29T11:52:07.952Z,9.41
2018-11-29T11:53:07.698Z,9.40
2018-11-29T11:54:07.680Z,9.38
2018-11-29T11:55:07.670Z,9.35
2018-11-29T11:56:07.658Z,9.40
2018-11-29T11:57:07.649Z,9.30
2018-11-29T11:58:07.651Z,9.24
2018-11-29T11:59:07.694Z,9.30
2018-11-29T12:00:07.618Z,9.31
2018-11-29T12:01:07.608Z,9.24
2018-11-29T12:02:07.602Z,9.23
2018-11-29T12:03:07.618Z,9.27
2018-11-29T12:04:07.583Z,9.22
2018-11-29T12:05:07.573Z,9.16
2018-11-29T12:06:07.558Z,9.19
2018-11-29T12:07:07.548Z,9.22
2018-11-29T12:08:07.536Z,9.16
2018-11-29T12:09:07.526Z,9.13
2018-11-29T12:10:07.521Z,9.12
2018-11-29T12:11:07.511Z,9.17
2018-11-29T12:12:07.498Z,9.17
2018-11-29T12:13:07.488Z,9.17
2018-11-29T12:14:07.477Z,9.19
2018-11-29T12:15:07.465Z,9.20
2018-11-29T12:16:07.459Z,9.31
2018-11-29T12:17:07.448Z,9.16
2018-11-29T12:18:07.431Z,9.27
2018-11-29T12:19:07.422Z,9.30
2018-11-29T12:20:07.411Z,9.30
2018-11-29T12:21:07.402Z,9.34
2018-11-29T12:22:07.395Z,9.38
2018-11-29T12:23:07.385Z,9.38
2018-11-29T12:24:07.373Z,9.40
2018-11-29T12:25:07.364Z,9.44
2018-11-29T12:26:07.349Z,9.49
2018-11-29T12:27:07.338Z,9.53
2018-11-29T12:28:07.327Z,9.55
2018-11-29T12:29:07.317Z,9.49
2018-11-29T12:30:07.312Z,9.52
2018-11-29T12:31:07.302Z,9.63
2018-11-29T12:32:07.285Z,9.62
2018-11-29T12:33:07.276Z,9.65
2018-11-29T12:34:07.270Z,9.70
2018-11-29T12:35:07.260Z,9.63
2018-11-29T12:36:07.249Z,9.73
2018-11-29T12:37:07.240Z,9.71
2018-11-29T12:38:07.226Z,9.74
2018-11-29T12:39:07.214Z,9.81
2018-11-29T12:40:07.204Z,9.85
2018-11-29T12:41:07.194Z,9.91
2018-11-29T12:42:07.190Z,9.85
2018-11-29T12:43:07.180Z,9.86
2018-11-29T12:44:07.168Z,9.86
2018-11-29T12:45:07.158Z,9.92
2018-11-29T12:46:07.146Z,9.85
2018-11-29T12:47:07.133Z,9.88
2018-11-29T12:48:07.127Z,9.88
2018-11-29T12:49:07.118Z,9.92
2018-11-29T12:50:07.105Z,9.78
2018-11-29T12:51:07.094Z,9.89
2018-11-29T12:52:07.084Z,9.83
2018-11-29T12:53:07.074Z,9.78
2018-11-29T12:54:07.068Z,9.77
2018-11-29T12:55:07.058Z,9.81
2018-11-29T12:56:07.050Z,9.78
2018-11-29T12:57:07.037Z,9.81
2018-11-29T12:58:07.024Z,9.92
2018-11-29T12:59:07.014Z,9.91
2018-11-29T13:00:07.005Z,9.92
2018-11-29T13:01:06.995Z,9.80
2018-11-29T13:02:06.990Z,9.75
2018-11-29T13:04:06.964Z,9.71
2018-11-29T13:05:06.954Z,9.75
2018-11-29T13:06:06.950Z,9.73
2018-11-29T13:07:06.944Z,9.77
2018-11-29T13:08:06.930Z,9.77
2018-11-29T13:09:06.918Z,9.67
2018-11-29T13:10:06.905Z,9.73
2018-11-29T13:11:10.701Z,9.65
2018-11-29T13:12:06.884Z,9.62
2018-11-29T13:13:06.876Z,9.63
2018-11-29T13:14:07.018Z,9.60
2018-11-29T13:15:06.933Z,9.62
2018-11-29T13:16:06.849Z,9.63